sensor_id;sensor_type;location;lat;lon;timestamp;P1;durP1;ratioP1;P2;durP2;ratioP2
8177;SDS011;4130;48.740;9.132;2022-10-22T00:01:37;0.47;;;0.10;;
8177;SDS011;4130;48.740;9.132;2022-10-22T00:04:04;0.40;;;0.30;;
8177;SDS011;4130;48.740;9.132;2022-10-22T00:06:32;0.20;;;0.20;;
8177;SDS011;4130;48.740;9.132;2022-10-22T00:09:01;0.30;;;0.23;;
8177;SDS011;4130;48.740;9.132;2022-10-22T00:11:27;0.20;;;0.20;;
8177;SDS011;4130;48.740;9.132;2022-10-22T00:13:54;0.47;;;0.30;;
8177;SDS011;4130;48.740;9.132;2022-10-22T00:16:22;1.87;;;0.30;;
8177;SDS011;4130;48.740;9.132;2022-10-22T00:18:49;0.40;;;0.20;;
8177;SDS011;4130;48.740;9.132;2022-10-22T00:21:15;0.13;;;0.13;;
8177;SDS011;4130;48.740;9.132;2022-10-22T00:23:42;0.50;;;0.30;;
8177;SDS011;4130;48.740;9.132;2022-10-22T00:26:10;0.37;;;0.13;;
8177;SDS011;4130;48.740;9.132;2022-10-22T00:28:37;1.40;;;0.20;;
8177;SDS011;4130;48.740;9.132;2022-10-22T00:31:04;0.63;;;0.20;;
8177;SDS011;4130;48.740;9.132;2022-10-22T00:33:31;0.43;;;0.20;;
8177;SDS011;4130;48.740;9.132;2022-10-22T00:35:58;0.17;;;0.10;;
8177;SDS011;4130;48.740;9.132;2022-10-22T00:38:25;1.17;;;0.30;;
8177;SDS011;4130;48.740;9.132;2022-10-22T00:40:51;0.43;;;0.23;;
8177;SDS011;4130;48.740;9.132;2022-10-22T00:43:20;0.20;;;0.20;;
8177;SDS011;4130;48.740;9.132;2022-10-22T00:45:46;0.43;;;0.10;;
8177;SDS011;4130;48.740;9.132;2022-10-22T00:48:15;0.10;;;0.10;;
8177;SDS011;4130;48.740;9.132;2022-10-22T00:50:46;0.10;;;0.10;;
8177;SDS011;4130;48.740;9.132;2022-10-22T00:53:16;0.50;;;0.20;;
8177;SDS011;4130;48.740;9.132;2022-10-22T00:55:46;0.30;;;0.17;;
8177;SDS011;4130;48.740;9.132;2022-10-22T00:58:17;0.20;;;0.20;;
8177;SDS011;4130;48.740;9.132;2022-10-22T01:00:46;0.10;;;0.10;;
8177;SDS011;4130;48.740;9.132;2022-10-22T01:03:13;0.07;;;0.07;;
8177;SDS011;4130;48.740;9.132;2022-10-22T01:05:42;0.10;;;0.10;;
8177;SDS011;4130;48.740;9.132;2022-10-22T01:08:13;0.10;;;0.10;;
8177;SDS011;4130;48.740;9.132;2022-10-22T01:10:50;0.50;;;0.10;;
8177;SDS011;4130;48.740;9.132;2022-10-22T01:13:30;0.70;;;0.30;;
8177;SDS011;4130;48.740;9.132;2022-10-22T01:16:07;0.47;;;0.33;;
8177;SDS011;4130;48.740;9.132;2022-10-22T01:18:37;0.10;;;0.10;;
8177;SDS011;4130;48.740;9.132;2022-10-22T01:21:14;0.20;;;0.20;;
8177;SDS011;4130;48.740;9.132;2022-10-22T01:26:54;0.20;;;0.20;;
8177;SDS011;4130;48.740;9.132;2022-10-22T01:29:32;0.40;;;0.20;;
8177;SDS011;4130;48.740;9.132;2022-10-22T01:32:04;0.30;;;0.20;;
8177;SDS011;4130;48.740;9.132;2022-10-22T01:34:34;0.10;;;0.10;;
8177;SDS011;4130;48.740;9.132;2022-10-22T01:37:05;0.23;;;0.20;;
8177;SDS011;4130;48.740;9.132;2022-10-22T01:39:34;0.20;;;0.20;;
8177;SDS011;4130;48.740;9.132;2022-10-22T01:42:10;0.20;;;0.20;;
8177;SDS011;4130;48.740;9.132;2022-10-22T01:44:39;0.23;;;0.20;;
8177;SDS011;4130;48.740;9.132;2022-10-22T01:47:11;0.10;;;0.10;;
8177;SDS011;4130;48.740;9.132;2022-10-22T01:49:46;0.10;;;0.10;;
8177;SDS011;4130;48.740;9.132;2022-10-22T01:52:27;0.30;;;0.30;;
8177;SDS011;4130;48.740;9.132;2022-10-22T01:55:07;1.23;;;0.30;;
8177;SDS011;4130;48.740;9.132;2022-10-22T01:57:41;0.30;;;0.20;;
8177;SDS011;4130;48.740;9.132;2022-10-22T02:00:16;0.83;;;0.20;;
8177;SDS011;4130;48.740;9.132;2022-10-22T02:02:46;0.30;;;0.30;;
8177;SDS011;4130;48.740;9.132;2022-10-22T02:05:20;1.10;;;0.40;;
8177;SDS011;4130;48.740;9.132;2022-10-22T02:07:51;0.20;;;0.20;;
8177;SDS011;4130;48.740;9.132;2022-10-22T02:10:21;0.20;;;0.20;;
8177;SDS011;4130;48.740;9.132;2022-10-22T02:12:49;0.13;;;0.13;;
8177;SDS011;4130;48.740;9.132;2022-10-22T02:15:21;1.03;;;0.40;;
8177;SDS011;4130;48.740;9.132;2022-10-22T02:17:50;0.20;;;0.20;;
8177;SDS011;4130;48.740;9.132;2022-10-22T02:20:21;0.17;;;0.17;;
8177;SDS011;4130;48.740;9.132;2022-10-22T02:22:52;0.20;;;0.20;;
8177;SDS011;4130;48.740;9.132;2022-10-22T02:25:20;0.20;;;0.17;;
8177;SDS011;4130;48.740;9.132;2022-10-22T02:27:50;0.10;;;0.10;;
8177;SDS011;4130;48.740;9.132;2022-10-22T02:30:25;0.30;;;0.10;;
8177;SDS011;4130;48.740;9.132;2022-10-22T02:32:53;0.67;;;0.30;;
8177;SDS011;4130;48.740;9.132;2022-10-22T02:35:25;0.47;;;0.40;;
8177;SDS011;4130;48.740;9.132;2022-10-22T02:37:54;0.40;;;0.20;;
8177;SDS011;4130;48.740;9.132;2022-10-22T02:40:22;1.50;;;0.37;;
8177;SDS011;4130;48.740;9.132;2022-10-22T02:42:50;0.53;;;0.10;;
8177;SDS011;4130;48.740;9.132;2022-10-22T02:45:17;1.50;;;0.30;;
8177;SDS011;4130;48.740;9.132;2022-10-22T02:47:46;0.10;;;0.10;;
8177;SDS011;4130;48.740;9.132;2022-10-22T02:50:13;0.20;;;0.20;;
8177;SDS011;4130;48.740;9.132;2022-10-22T02:52:40;0.20;;;0.20;;
8177;SDS011;4130;48.740;9.132;2022-10-22T02:55:07;0.30;;;0.30;;
8177;SDS011;4130;48.740;9.132;2022-10-22T02:57:34;0.60;;;0.20;;
8177;SDS011;4130;48.740;9.132;2022-10-22T03:00:01;0.20;;;0.20;;
8177;SDS011;4130;48.740;9.132;2022-10-22T03:02:29;0.10;;;0.10;;
8177;SDS011;4130;48.740;9.132;2022-10-22T03:04:57;0.20;;;0.20;;
8177;SDS011;4130;48.740;9.132;2022-10-22T03:07:24;0.10;;;0.10;;
8177;SDS011;4130;48.740;9.132;2022-10-22T03:09:50;0.20;;;0.20;;
8177;SDS011;4130;48.740;9.132;2022-10-22T03:12:17;0.60;;;0.40;;
8177;SDS011;4130;48.740;9.132;2022-10-22T03:14:44;0.17;;;0.17;;
8177;SDS011;4130;48.740;9.132;2022-10-22T03:17:10;0.10;;;0.10;;
8177;SDS011;4130;48.740;9.132;2022-10-22T03:19:37;1.43;;;0.40;;
8177;SDS011;4130;48.740;9.132;2022-10-22T03:22:06;0.23;;;0.23;;
8177;SDS011;4130;48.740;9.132;2022-10-22T03:24:37;0.60;;;0.40;;
8177;SDS011;4130;48.740;9.132;2022-10-22T03:27:07;0.50;;;0.10;;
8177;SDS011;4130;48.740;9.132;2022-10-22T03:29:35;0.50;;;0.30;;
8177;SDS011;4130;48.740;9.132;2022-10-22T03:32:03;0.20;;;0.20;;
8177;SDS011;4130;48.740;9.132;2022-10-22T03:34:30;0.23;;;0.23;;
8177;SDS011;4130;48.740;9.132;2022-10-22T03:36:57;0.13;;;0.10;;
8177;SDS011;4130;48.740;9.132;2022-10-22T03:39:27;0.27;;;0.27;;
8177;SDS011;4130;48.740;9.132;2022-10-22T03:41:55;0.20;;;0.20;;
8177;SDS011;4130;48.740;9.132;2022-10-22T03:44:22;0.20;;;0.20;;
8177;SDS011;4130;48.740;9.132;2022-10-22T03:46:50;4.40;;;0.30;;
8177;SDS011;4130;48.740;9.132;2022-10-22T03:49:17;0.27;;;0.27;;
8177;SDS011;4130;48.740;9.132;2022-10-22T03:51:43;0.03;;;0.03;;
8177;SDS011;4130;48.740;9.132;2022-10-22T03:54:10;0.53;;;0.30;;
8177;SDS011;4130;48.740;9.132;2022-10-22T03:56:38;0.60;;;0.33;;
8177;SDS011;4130;48.740;9.132;2022-10-22T03:59:05;0.50;;;0.30;;
8177;SDS011;4130;48.740;9.132;2022-10-22T04:01:32;0.17;;;0.17;;
8177;SDS011;4130;48.740;9.132;2022-10-22T04:03:59;1.30;;;0.27;;
8177;SDS011;4130;48.740;9.132;2022-10-22T04:06:25;0.10;;;0.10;;
8177;SDS011;4130;48.740;9.132;2022-10-22T04:08:54;0.20;;;0.10;;
8177;SDS011;4130;48.740;9.132;2022-10-22T04:11:21;0.17;;;0.17;;
8177;SDS011;4130;48.740;9.132;2022-10-22T04:13:49;0.47;;;0.30;;
8177;SDS011;4130;48.740;9.132;2022-10-22T04:16:17;0.20;;;0.20;;
8177;SDS011;4130;48.740;9.132;2022-10-22T04:18:46;0.00;;;0.00;;
8177;SDS011;4130;48.740;9.132;2022-10-22T04:21:15;2.27;;;0.17;;
8177;SDS011;4130;48.740;9.132;2022-10-22T04:23:43;0.10;;;0.10;;
8177;SDS011;4130;48.740;9.132;2022-10-22T04:26:11;0.60;;;0.20;;
8177;SDS011;4130;48.740;9.132;2022-10-22T04:28:37;0.63;;;0.20;;
8177;SDS011;4130;48.740;9.132;2022-10-22T04:31:07;0.40;;;0.23;;
8177;SDS011;4130;48.740;9.132;2022-10-22T04:33:35;0.10;;;0.10;;
8177;SDS011;4130;48.740;9.132;2022-10-22T04:36:04;0.10;;;0.10;;
8177;SDS011;4130;48.740;9.132;2022-10-22T04:38:32;1.07;;;0.20;;
8177;SDS011;4130;48.740;9.132;2022-10-22T04:41:06;0.43;;;0.40;;
8177;SDS011;4130;48.740;9.132;2022-10-22T04:43:34;0.13;;;0.13;;
8177;SDS011;4130;48.740;9.132;2022-10-22T04:46:00;0.30;;;0.20;;
8177;SDS011;4130;48.740;9.132;2022-10-22T04:48:28;1.30;;;0.27;;
8177;SDS011;4130;48.740;9.132;2022-10-22T04:50:55;0.20;;;0.20;;
8177;SDS011;4130;48.740;9.132;2022-10-22T04:53:22;0.30;;;0.30;;
8177;SDS011;4130;48.740;9.132;2022-10-22T04:55:49;0.43;;;0.30;;
8177;SDS011;4130;48.740;9.132;2022-10-22T04:58:15;0.10;;;0.10;;
8177;SDS011;4130;48.740;9.132;2022-10-22T05:00:42;0.43;;;0.30;;
8177;SDS011;4130;48.740;9.132;2022-10-22T05:03:09;0.20;;;0.20;;
8177;SDS011;4130;48.740;9.132;2022-10-22T05:05:37;0.90;;;0.30;;
8177;SDS011;4130;48.740;9.132;2022-10-22T05:08:04;1.03;;;0.33;;
8177;SDS011;4130;48.740;9.132;2022-10-22T05:10:30;0.17;;;0.17;;
8177;SDS011;4130;48.740;9.132;2022-10-22T05:12:57;0.20;;;0.20;;
8177;SDS011;4130;48.740;9.132;2022-10-22T05:15:24;0.63;;;0.30;;
8177;SDS011;4130;48.740;9.132;2022-10-22T05:17:50;0.13;;;0.13;;
8177;SDS011;4130;48.740;9.132;2022-10-22T05:20:17;0.30;;;0.23;;
8177;SDS011;4130;48.740;9.132;2022-10-22T05:22:45;1.10;;;0.10;;
8177;SDS011;4130;48.740;9.132;2022-10-22T05:25:12;0.93;;;0.20;;
8177;SDS011;4130;48.740;9.132;2022-10-22T05:27:39;0.10;;;0.10;;
8177;SDS011;4130;48.740;9.132;2022-10-22T05:30:05;0.30;;;0.30;;
8177;SDS011;4130;48.740;9.132;2022-10-22T05:32:33;0.53;;;0.20;;
8177;SDS011;4130;48.740;9.132;2022-10-22T05:35:00;0.90;;;0.40;;
8177;SDS011;4130;48.740;9.132;2022-10-22T05:37:27;0.40;;;0.40;;
8177;SDS011;4130;48.740;9.132;2022-10-22T05:39:55;0.20;;;0.20;;
8177;SDS011;4130;48.740;9.132;2022-10-22T05:42:21;0.30;;;0.27;;
8177;SDS011;4130;48.740;9.132;2022-10-22T05:44:48;0.53;;;0.30;;
8177;SDS011;4130;48.740;9.132;2022-10-22T05:47:15;0.20;;;0.20;;
8177;SDS011;4130;48.740;9.132;2022-10-22T05:49:41;0.40;;;0.13;;
8177;SDS011;4130;48.740;9.132;2022-10-22T05:52:08;0.40;;;0.30;;
8177;SDS011;4130;48.740;9.132;2022-10-22T05:54:36;0.47;;;0.27;;
8177;SDS011;4130;48.740;9.132;2022-10-22T05:57:04;0.30;;;0.23;;
8177;SDS011;4130;48.740;9.132;2022-10-22T05:59:31;0.13;;;0.13;;
8177;SDS011;4130;48.740;9.132;2022-10-22T06:01:58;2.50;;;2.30;;
8177;SDS011;4130;48.740;9.132;2022-10-22T06:04:25;0.90;;;0.90;;
8177;SDS011;4130;48.740;9.132;2022-10-22T06:06:51;0.97;;;0.50;;
8177;SDS011;4130;48.740;9.132;2022-10-22T06:09:19;0.37;;;0.37;;
8177;SDS011;4130;48.740;9.132;2022-10-22T06:11:50;0.30;;;0.30;;
8177;SDS011;4130;48.740;9.132;2022-10-22T06:14:18;0.63;;;0.40;;
8177;SDS011;4130;48.740;9.132;2022-10-22T06:16:45;0.30;;;0.30;;
8177;SDS011;4130;48.740;9.132;2022-10-22T06:19:13;0.83;;;0.83;;
8177;SDS011;4130;48.740;9.132;2022-10-22T06:21:41;1.03;;;0.40;;
8177;SDS011;4130;48.740;9.132;2022-10-22T06:24:09;0.93;;;0.50;;
8177;SDS011;4130;48.740;9.132;2022-10-22T06:26:36;0.30;;;0.30;;
8177;SDS011;4130;48.740;9.132;2022-10-22T06:29:03;0.67;;;0.50;;
8177;SDS011;4130;48.740;9.132;2022-10-22T06:31:31;0.73;;;0.43;;
8177;SDS011;4130;48.740;9.132;2022-10-22T06:34:00;0.60;;;0.60;;
8177;SDS011;4130;48.740;9.132;2022-10-22T06:36:27;0.50;;;0.50;;
8177;SDS011;4130;48.740;9.132;2022-10-22T06:38:54;0.30;;;0.30;;
8177;SDS011;4130;48.740;9.132;2022-10-22T06:41:22;0.40;;;0.27;;
8177;SDS011;4130;48.740;9.132;2022-10-22T06:43:49;0.20;;;0.20;;
8177;SDS011;4130;48.740;9.132;2022-10-22T06:46:16;0.50;;;0.50;;
8177;SDS011;4130;48.740;9.132;2022-10-22T06:48:48;1.43;;;0.80;;
8177;SDS011;4130;48.740;9.132;2022-10-22T06:51:16;0.50;;;0.50;;
8177;SDS011;4130;48.740;9.132;2022-10-22T06:53:45;0.80;;;0.50;;
8177;SDS011;4130;48.740;9.132;2022-10-22T06:56:12;0.57;;;0.40;;
8177;SDS011;4130;48.740;9.132;2022-10-22T06:58:40;0.30;;;0.30;;
8177;SDS011;4130;48.740;9.132;2022-10-22T07:01:08;0.50;;;0.50;;
8177;SDS011;4130;48.740;9.132;2022-10-22T07:03:36;0.30;;;0.30;;
8177;SDS011;4130;48.740;9.132;2022-10-22T07:06:06;0.40;;;0.40;;
8177;SDS011;4130;48.740;9.132;2022-10-22T07:08:34;0.43;;;0.23;;
8177;SDS011;4130;48.740;9.132;2022-10-22T07:11:04;0.20;;;0.20;;
8177;SDS011;4130;48.740;9.132;2022-10-22T07:13:32;0.40;;;0.40;;
8177;SDS011;4130;48.740;9.132;2022-10-22T07:15:59;0.40;;;0.40;;
8177;SDS011;4130;48.740;9.132;2022-10-22T07:18:26;0.67;;;0.30;;
8177;SDS011;4130;48.740;9.132;2022-10-22T07:20:53;0.50;;;0.50;;
8177;SDS011;4130;48.740;9.132;2022-10-22T07:23:21;0.30;;;0.30;;
8177;SDS011;4130;48.740;9.132;2022-10-22T07:25:48;1.33;;;0.33;;
8177;SDS011;4130;48.740;9.132;2022-10-22T07:28:15;0.50;;;0.50;;
8177;SDS011;4130;48.740;9.132;2022-10-22T07:30:42;0.40;;;0.40;;
8177;SDS011;4130;48.740;9.132;2022-10-22T07:33:08;0.40;;;0.40;;
8177;SDS011;4130;48.740;9.132;2022-10-22T07:35:35;1.00;;;0.83;;
8177;SDS011;4130;48.740;9.132;2022-10-22T07:38:03;0.67;;;0.30;;
8177;SDS011;4130;48.740;9.132;2022-10-22T07:40:32;1.00;;;0.40;;
8177;SDS011;4130;48.740;9.132;2022-10-22T07:42:59;0.20;;;0.20;;
8177;SDS011;4130;48.740;9.132;2022-10-22T07:45:26;0.97;;;0.47;;
8177;SDS011;4130;48.740;9.132;2022-10-22T07:47:53;0.37;;;0.30;;
8177;SDS011;4130;48.740;9.132;2022-10-22T07:50:20;1.70;;;0.30;;
8177;SDS011;4130;48.740;9.132;2022-10-22T07:52:47;2.27;;;0.30;;
8177;SDS011;4130;48.740;9.132;2022-10-22T07:55:14;0.50;;;0.50;;
8177;SDS011;4130;48.740;9.132;2022-10-22T07:57:42;0.37;;;0.37;;
8177;SDS011;4130;48.740;9.132;2022-10-22T08:00:09;0.30;;;0.30;;
8177;SDS011;4130;48.740;9.132;2022-10-22T08:02:36;0.52;;;0.52;;
8177;SDS011;4130;48.740;9.132;2022-10-22T08:05:03;1.70;;;1.60;;
8177;SDS011;4130;48.740;9.132;2022-10-22T08:07:31;0.87;;;0.70;;
8177;SDS011;4130;48.740;9.132;2022-10-22T08:09:57;0.75;;;0.50;;
8177;SDS011;4130;48.740;9.132;2022-10-22T08:12:24;0.43;;;0.20;;
8177;SDS011;4130;48.740;9.132;2022-10-22T08:14:52;0.40;;;0.40;;
8177;SDS011;4130;48.740;9.132;2022-10-22T08:17:19;0.70;;;0.45;;
8177;SDS011;4130;48.740;9.132;2022-10-22T08:19:46;0.80;;;0.80;;
8177;SDS011;4130;48.740;9.132;2022-10-22T08:22:13;0.50;;;0.50;;
8177;SDS011;4130;48.740;9.132;2022-10-22T08:24:40;0.50;;;0.50;;
8177;SDS011;4130;48.740;9.132;2022-10-22T08:27:06;0.73;;;0.73;;
8177;SDS011;4130;48.740;9.132;2022-10-22T08:29:33;0.70;;;0.67;;
8177;SDS011;4130;48.740;9.132;2022-10-22T08:32:01;0.65;;;0.65;;
8177;SDS011;4130;48.740;9.132;2022-10-22T08:34:28;0.50;;;0.50;;
8177;SDS011;4130;48.740;9.132;2022-10-22T08:36:55;0.80;;;0.60;;
8177;SDS011;4130;48.740;9.132;2022-10-22T08:39:22;2.00;;;0.50;;
8177;SDS011;4130;48.740;9.132;2022-10-22T08:41:52;1.05;;;0.60;;
8177;SDS011;4130;48.740;9.132;2022-10-22T08:44:41;0.67;;;0.63;;
8177;SDS011;4130;48.740;9.132;2022-10-22T08:47:30;0.40;;;0.40;;
8177;SDS011;4130;48.740;9.132;2022-10-22T08:50:15;0.40;;;0.40;;
8177;SDS011;4130;48.740;9.132;2022-10-22T08:52:48;0.50;;;0.50;;
8177;SDS011;4130;48.740;9.132;2022-10-22T08:55:20;2.85;;;0.65;;
8177;SDS011;4130;48.740;9.132;2022-10-22T08:57:51;0.50;;;0.50;;
8177;SDS011;4130;48.740;9.132;2022-10-22T09:00:27;0.70;;;0.70;;
8177;SDS011;4130;48.740;9.132;2022-10-22T09:03:04;1.23;;;0.60;;
8177;SDS011;4130;48.740;9.132;2022-10-22T09:05:50;0.60;;;0.60;;
8177;SDS011;4130;48.740;9.132;2022-10-22T09:08:24;0.50;;;0.50;;
8177;SDS011;4130;48.740;9.132;2022-10-22T09:10:52;0.75;;;0.75;;
8177;SDS011;4130;48.740;9.132;2022-10-22T09:13:22;0.57;;;0.52;;
8177;SDS011;4130;48.740;9.132;2022-10-22T09:15:50;0.50;;;0.50;;
8177;SDS011;4130;48.740;9.132;2022-10-22T09:18:31;1.08;;;0.40;;
8177;SDS011;4130;48.740;9.132;2022-10-22T09:21:05;2.90;;;0.47;;
8177;SDS011;4130;48.740;9.132;2022-10-22T09:23:39;2.10;;;0.50;;
8177;SDS011;4130;48.740;9.132;2022-10-22T09:26:20;0.50;;;0.50;;
8177;SDS011;4130;48.740;9.132;2022-10-22T09:28:48;2.25;;;0.50;;
8177;SDS011;4130;48.740;9.132;2022-10-22T09:31:16;0.52;;;0.50;;
8177;SDS011;4130;48.740;9.132;2022-10-22T09:33:45;1.05;;;0.60;;
8177;SDS011;4130;48.740;9.132;2022-10-22T09:36:14;0.70;;;0.70;;
8177;SDS011;4130;48.740;9.132;2022-10-22T09:38:44;1.52;;;0.80;;
8177;SDS011;4130;48.740;9.132;2022-10-22T09:41:13;0.75;;;0.70;;
8177;SDS011;4130;48.740;9.132;2022-10-22T09:43:40;0.50;;;0.50;;
8177;SDS011;4130;48.740;9.132;2022-10-22T09:46:07;0.52;;;0.47;;
8177;SDS011;4130;48.740;9.132;2022-10-22T09:48:42;0.88;;;0.70;;
8177;SDS011;4130;48.740;9.132;2022-10-22T09:51:15;0.73;;;0.40;;
8177;SDS011;4130;48.740;9.132;2022-10-22T09:53:45;0.40;;;0.40;;
8177;SDS011;4130;48.740;9.132;2022-10-22T09:56:16;0.60;;;0.60;;
8177;SDS011;4130;48.740;9.132;2022-10-22T09:58:49;0.30;;;0.30;;
8177;SDS011;4130;48.740;9.132;2022-10-22T10:01:17;1.70;;;0.45;;
8177;SDS011;4130;48.740;9.132;2022-10-22T10:03:46;0.63;;;0.40;;
8177;SDS011;4130;48.740;9.132;2022-10-22T10:06:17;2.30;;;0.60;;
8177;SDS011;4130;48.740;9.132;2022-10-22T10:08:45;0.85;;;0.50;;
8177;SDS011;4130;48.740;9.132;2022-10-22T10:11:14;0.50;;;0.50;;
8177;SDS011;4130;48.740;9.132;2022-10-22T10:13:50;0.50;;;0.50;;
8177;SDS011;4130;48.740;9.132;2022-10-22T10:16:25;0.43;;;0.43;;
8177;SDS011;4130;48.740;9.132;2022-10-22T10:19:08;2.05;;;0.50;;
8177;SDS011;4130;48.740;9.132;2022-10-22T10:21:53;0.65;;;0.55;;
8177;SDS011;4130;48.740;9.132;2022-10-22T10:24:27;0.88;;;0.63;;
8177;SDS011;4130;48.740;9.132;2022-10-22T10:27:19;4.40;;;0.50;;
8177;SDS011;4130;48.740;9.132;2022-10-22T10:29:52;1.23;;;0.60;;
8177;SDS011;4130;48.740;9.132;2022-10-22T10:32:29;1.30;;;0.60;;
8177;SDS011;4130;48.740;9.132;2022-10-22T10:35:14;0.60;;;0.60;;
8177;SDS011;4130;48.740;9.132;2022-10-22T10:37:51;1.52;;;0.60;;
8177;SDS011;4130;48.740;9.132;2022-10-22T10:40:32;0.75;;;0.60;;
8177;SDS011;4130;48.740;9.132;2022-10-22T10:43:06;0.50;;;0.50;;
8177;SDS011;4130;48.740;9.132;2022-10-22T10:45:38;0.68;;;0.68;;
8177;SDS011;4130;48.740;9.132;2022-10-22T10:48:17;1.13;;;0.70;;
8177;SDS011;4130;48.740;9.132;2022-10-22T10:50:53;0.65;;;0.65;;
8177;SDS011;4130;48.740;9.132;2022-10-22T10:53:32;0.90;;;0.60;;
8177;SDS011;4130;48.740;9.132;2022-10-22T10:56:15;0.60;;;0.60;;
8177;SDS011;4130;48.740;9.132;2022-10-22T10:58:58;0.55;;;0.55;;
8177;SDS011;4130;48.740;9.132;2022-10-22T11:01:39;3.50;;;0.95;;
8177;SDS011;4130;48.740;9.132;2022-10-22T11:07:14;1.20;;;0.80;;
8177;SDS011;4130;48.740;9.132;2022-10-22T11:09:47;2.00;;;0.68;;
8177;SDS011;4130;48.740;9.132;2022-10-22T11:12:20;4.35;;;0.70;;
8177;SDS011;4130;48.740;9.132;2022-10-22T11:14:54;0.75;;;0.75;;
8177;SDS011;4130;48.740;9.132;2022-10-22T11:17:28;1.73;;;0.98;;
8177;SDS011;4130;48.740;9.132;2022-10-22T11:20:02;1.23;;;0.77;;
8177;SDS011;4130;48.740;9.132;2022-10-22T11:22:37;3.38;;;0.90;;
8177;SDS011;4130;48.740;9.132;2022-10-22T11:25:14;3.08;;;0.90;;
8177;SDS011;4130;48.740;9.132;2022-10-22T11:27:46;1.10;;;0.70;;
8177;SDS011;4130;48.740;9.132;2022-10-22T11:30:18;1.33;;;0.70;;
8177;SDS011;4130;48.740;9.132;2022-10-22T11:32:46;0.90;;;0.75;;
8177;SDS011;4130;48.740;9.132;2022-10-22T11:35:15;2.03;;;0.80;;
8177;SDS011;4130;48.740;9.132;2022-10-22T11:37:45;1.27;;;0.88;;
8177;SDS011;4130;48.740;9.132;2022-10-22T11:40:17;2.80;;;0.80;;
8177;SDS011;4130;48.740;9.132;2022-10-22T11:42:47;4.57;;;0.88;;
8177;SDS011;4130;48.740;9.132;2022-10-22T11:45:26;2.20;;;0.60;;
8177;SDS011;4130;48.740;9.132;2022-10-22T11:48:13;1.70;;;0.90;;
8177;SDS011;4130;48.740;9.132;2022-10-22T11:50:46;0.73;;;0.57;;
8177;SDS011;4130;48.740;9.132;2022-10-22T11:53:18;0.40;;;0.40;;
8177;SDS011;4130;48.740;9.132;2022-10-22T11:55:57;1.50;;;0.73;;
8177;SDS011;4130;48.740;9.132;2022-10-22T11:58:31;0.93;;;0.50;;
8177;SDS011;4130;48.740;9.132;2022-10-22T12:04:14;1.80;;;1.00;;
8177;SDS011;4130;48.740;9.132;2022-10-22T12:07:01;2.42;;;1.40;;
8177;SDS011;4130;48.740;9.132;2022-10-22T12:09:28;0.57;;;0.50;;
8177;SDS011;4130;48.740;9.132;2022-10-22T12:12:11;2.47;;;0.77;;
8177;SDS011;4130;48.740;9.132;2022-10-22T12:14:50;3.08;;;0.60;;
8177;SDS011;4130;48.740;9.132;2022-10-22T12:17:19;1.55;;;0.60;;
8177;SDS011;4130;48.740;9.132;2022-10-22T12:19:48;2.60;;;0.85;;
8177;SDS011;4130;48.740;9.132;2022-10-22T12:22:21;1.42;;;0.77;;
8177;SDS011;4130;48.740;9.132;2022-10-22T12:24:50;2.50;;;0.60;;
8177;SDS011;4130;48.740;9.132;2022-10-22T12:27:20;0.50;;;0.50;;
8177;SDS011;4130;48.740;9.132;2022-10-22T12:29:52;0.45;;;0.45;;
8177;SDS011;4130;48.740;9.132;2022-10-22T12:32:20;4.03;;;0.85;;
8177;SDS011;4130;48.740;9.132;2022-10-22T12:34:49;1.85;;;0.70;;
8177;SDS011;4130;48.740;9.132;2022-10-22T12:37:17;0.80;;;0.50;;
8177;SDS011;4130;48.740;9.132;2022-10-22T12:39:45;3.33;;;0.60;;
8177;SDS011;4130;48.740;9.132;2022-10-22T12:42:12;1.50;;;1.00;;
8177;SDS011;4130;48.740;9.132;2022-10-22T12:44:43;2.70;;;0.85;;
8177;SDS011;4130;48.740;9.132;2022-10-22T12:47:11;2.45;;;1.08;;
8177;SDS011;4130;48.740;9.132;2022-10-22T12:49:42;1.13;;;0.80;;
8177;SDS011;4130;48.740;9.132;2022-10-22T12:52:13;2.85;;;0.70;;
8177;SDS011;4130;48.740;9.132;2022-10-22T12:54:43;1.45;;;0.88;;
8177;SDS011;4130;48.740;9.132;2022-10-22T12:57:12;1.48;;;0.90;;
8177;SDS011;4130;48.740;9.132;2022-10-22T12:59:44;1.25;;;0.73;;
8177;SDS011;4130;48.740;9.132;2022-10-22T13:02:15;1.48;;;1.25;;
8177;SDS011;4130;48.740;9.132;2022-10-22T13:07:41;2.50;;;0.77;;
8177;SDS011;4130;48.740;9.132;2022-10-22T13:10:12;2.58;;;1.00;;
8177;SDS011;4130;48.740;9.132;2022-10-22T13:12:43;0.95;;;0.63;;
8177;SDS011;4130;48.740;9.132;2022-10-22T13:15:19;1.35;;;0.65;;
8177;SDS011;4130;48.740;9.132;2022-10-22T13:17:47;0.60;;;0.60;;
8177;SDS011;4130;48.740;9.132;2022-10-22T13:20:16;0.70;;;0.60;;
8177;SDS011;4130;48.740;9.132;2022-10-22T13:25:30;4.13;;;0.60;;
8177;SDS011;4130;48.740;9.132;2022-10-22T13:27:59;1.52;;;0.70;;
8177;SDS011;4130;48.740;9.132;2022-10-22T13:30:37;0.95;;;0.57;;
8177;SDS011;4130;48.740;9.132;2022-10-22T13:33:05;1.08;;;0.73;;
8177;SDS011;4130;48.740;9.132;2022-10-22T13:35:46;1.75;;;0.85;;
8177;SDS011;4130;48.740;9.132;2022-10-22T13:38:13;2.38;;;0.88;;
8177;SDS011;4130;48.740;9.132;2022-10-22T13:40:43;0.85;;;0.70;;
8177;SDS011;4130;48.740;9.132;2022-10-22T13:43:10;2.15;;;0.90;;
8177;SDS011;4130;48.740;9.132;2022-10-22T13:45:38;1.95;;;1.00;;
8177;SDS011;4130;48.740;9.132;2022-10-22T13:48:07;1.30;;;0.93;;
8177;SDS011;4130;48.740;9.132;2022-10-22T13:50:38;1.10;;;0.75;;
8177;SDS011;4130;48.740;9.132;2022-10-22T13:53:05;2.25;;;1.70;;
8177;SDS011;4130;48.740;9.132;2022-10-22T13:55:41;2.88;;;1.23;;
8177;SDS011;4130;48.740;9.132;2022-10-22T13:58:10;5.00;;;1.85;;
8177;SDS011;4130;48.740;9.132;2022-10-22T14:00:40;6.03;;;3.50;;
8177;SDS011;4130;48.740;9.132;2022-10-22T14:03:10;2.45;;;1.48;;
8177;SDS011;4130;48.740;9.132;2022-10-22T14:05:38;4.00;;;1.20;;
8177;SDS011;4130;48.740;9.132;2022-10-22T14:08:07;1.58;;;0.90;;
8177;SDS011;4130;48.740;9.132;2022-10-22T14:10:36;1.00;;;0.73;;
8177;SDS011;4130;48.740;9.132;2022-10-22T14:13:04;1.05;;;0.90;;
8177;SDS011;4130;48.740;9.132;2022-10-22T14:15:31;0.70;;;0.70;;
8177;SDS011;4130;48.740;9.132;2022-10-22T14:18:00;1.17;;;0.93;;
8177;SDS011;4130;48.740;9.132;2022-10-22T14:20:29;3.15;;;1.13;;
8177;SDS011;4130;48.740;9.132;2022-10-22T14:22:59;2.15;;;0.73;;
8177;SDS011;4130;48.740;9.132;2022-10-22T14:25:28;1.52;;;1.15;;
8177;SDS011;4130;48.740;9.132;2022-10-22T14:27:55;0.95;;;0.68;;
8177;SDS011;4130;48.740;9.132;2022-10-22T14:30:23;0.95;;;0.73;;
8177;SDS011;4130;48.740;9.132;2022-10-22T14:32:50;1.25;;;0.55;;
8177;SDS011;4130;48.740;9.132;2022-10-22T14:35:19;1.58;;;0.60;;
8177;SDS011;4130;48.740;9.132;2022-10-22T14:37:47;2.92;;;0.85;;
8177;SDS011;4130;48.740;9.132;2022-10-22T14:40:16;0.82;;;0.80;;
8177;SDS011;4130;48.740;9.132;2022-10-22T14:42:45;1.23;;;0.60;;
8177;SDS011;4130;48.740;9.132;2022-10-22T14:45:14;1.58;;;0.65;;
8177;SDS011;4130;48.740;9.132;2022-10-22T14:47:42;1.20;;;0.75;;
8177;SDS011;4130;48.740;9.132;2022-10-22T14:50:09;1.30;;;1.20;;
8177;SDS011;4130;48.740;9.132;2022-10-22T14:52:37;1.58;;;1.10;;
8177;SDS011;4130;48.740;9.132;2022-10-22T14:55:07;2.58;;;0.90;;
8177;SDS011;4130;48.740;9.132;2022-10-22T14:57:34;1.52;;;0.70;;
8177;SDS011;4130;48.740;9.132;2022-10-22T15:00:03;0.95;;;0.68;;
8177;SDS011;4130;48.740;9.132;2022-10-22T15:02:31;0.50;;;0.50;;
8177;SDS011;4130;48.740;9.132;2022-10-22T15:04:58;2.00;;;0.80;;
8177;SDS011;4130;48.740;9.132;2022-10-22T15:07:25;2.13;;;1.10;;
8177;SDS011;4130;48.740;9.132;2022-10-22T15:09:53;2.90;;;1.08;;
8177;SDS011;4130;48.740;9.132;2022-10-22T15:12:20;2.58;;;0.90;;
8177;SDS011;4130;48.740;9.132;2022-10-22T15:14:47;1.02;;;0.98;;
8177;SDS011;4130;48.740;9.132;2022-10-22T15:17:13;2.05;;;0.70;;
8177;SDS011;4130;48.740;9.132;2022-10-22T15:19:41;2.53;;;1.13;;
8177;SDS011;4130;48.740;9.132;2022-10-22T15:22:08;1.60;;;0.90;;
8177;SDS011;4130;48.740;9.132;2022-10-22T15:24:35;1.52;;;1.00;;
8177;SDS011;4130;48.740;9.132;2022-10-22T15:27:03;1.50;;;0.90;;
8177;SDS011;4130;48.740;9.132;2022-10-22T15:29:30;0.68;;;0.65;;
8177;SDS011;4130;48.740;9.132;2022-10-22T15:31:57;0.82;;;0.80;;
8177;SDS011;4130;48.740;9.132;2022-10-22T15:34:25;2.25;;;1.23;;
8177;SDS011;4130;48.740;9.132;2022-10-22T15:36:54;0.98;;;0.88;;
8177;SDS011;4130;48.740;9.132;2022-10-22T15:39:21;2.15;;;0.80;;
8177;SDS011;4130;48.740;9.132;2022-10-22T15:41:49;1.92;;;0.93;;
8177;SDS011;4130;48.740;9.132;2022-10-22T15:44:18;2.15;;;0.70;;
8177;SDS011;4130;48.740;9.132;2022-10-22T15:46:46;2.53;;;1.08;;